createdAt,value
2022-08-02T00:02:36.877Z,87.14
2022-08-02T00:06:39.242Z,87.33
2022-08-02T00:10:41.308Z,87.90
2022-08-02T00:14:43.367Z,87.82
2022-08-02T00:18:45.611Z,87.83
2022-08-02T00:22:47.634Z,88.75
2022-08-02T00:26:49.703Z,90.20
2022-08-02T00:30:52.171Z,90.70
2022-08-02T00:34:54.209Z,89.74
2022-08-02T00:38:56.852Z,89.35
2022-08-02T00:43:07.254Z,90.71
2022-08-02T00:47:09.865Z,91.25
2022-08-02T00:51:12.896Z,91.13
2022-08-02T00:55:17.463Z,91.23
2022-08-02T00:59:25.472Z,90.68
2022-08-02T01:03:28.047Z,90.97
2022-08-02T01:07:30.107Z,90.68
2022-08-02T01:11:32.798Z,89.83
2022-08-02T01:15:43.889Z,90.29
2022-08-02T01:20:08.946Z,89.36
2022-08-02T01:24:19.055Z,90.26
2022-08-02T01:28:40.973Z,89.75
2022-08-02T01:32:48.940Z,90.18
2022-08-02T01:36:58.737Z,90.19
2022-08-02T01:41:03.742Z,90.43
2022-08-02T01:45:07.999Z,88.65
2022-08-02T01:49:15.931Z,89.18
2022-08-02T01:53:20.242Z,89.24
2022-08-02T01:57:24.513Z,91.74
2022-08-02T02:01:27.074Z,92.41
2022-08-02T02:05:32.185Z,93.09
2022-08-02T02:09:49.262Z,90.63
2022-08-02T02:13:53.260Z,90.40
2022-08-02T02:18:12.568Z,92.36
2022-08-02T02:22:15.737Z,92.88
2022-08-02T02:26:20.876Z,93.32
2022-08-02T02:30:37.388Z,93.56
2022-08-02T02:34:43.248Z,93.96
2022-08-02T02:38:47.135Z,94.12
2022-08-02T02:42:51.909Z,92.91
2022-08-02T02:46:55.350Z,91.15
2022-08-02T02:50:59.548Z,89.95
2022-08-02T02:55:02.847Z,90.42
2022-08-02T02:59:07.045Z,91.78
2022-08-02T03:03:09.565Z,93.00
2022-08-02T03:07:11.641Z,95.15
2022-08-02T03:11:14.346Z,95.09
2022-08-02T03:15:17.817Z,94.79
2022-08-02T03:19:21.796Z,94.95
2022-08-02T03:23:23.867Z,95.73
2022-08-02T03:27:25.943Z,95.75
2022-08-02T03:31:28.519Z,96.24
2022-08-02T03:35:35.408Z,96.89
2022-08-02T03:39:38.318Z,97.88
2022-08-02T03:43:54.262Z,97.80
2022-08-02T03:47:58.888Z,96.15
2022-08-02T03:52:01.904Z,94.43
2022-08-02T03:56:05.828Z,93.94
2022-08-02T04:00:09.643Z,92.74
2022-08-02T04:04:14.335Z,91.17
2022-08-02T04:08:36.857Z,92.26
2022-08-02T04:12:38.865Z,92.48
2022-08-02T04:16:46.380Z,92.48
2022-08-02T04:20:51.464Z,93.09
2022-08-02T04:24:58.730Z,92.73
2022-08-02T04:29:00.820Z,92.80
2022-08-02T04:33:03.109Z,93.08
2022-08-02T04:37:05.798Z,92.17
2022-08-02T04:41:08.502Z,91.45
2022-08-02T04:45:11.569Z,90.73
2022-08-02T04:49:18.907Z,80.10
2022-08-02T04:53:21.065Z,67.25
2022-08-02T04:57:51.229Z,57.67
2022-08-02T05:01:55.195Z,54.06
2022-08-02T05:05:57.268Z,52.04
2022-08-02T05:09:59.441Z,54.82
2022-08-02T05:14:01.856Z,58.34
2022-08-02T05:18:03.993Z,60.96
2022-08-02T05:22:06.040Z,60.59
2022-08-02T05:26:08.104Z,58.28
2022-08-02T05:30:10.910Z,56.72
2022-08-02T05:34:13.005Z,58.86
2022-08-02T05:38:15.085Z,58.05
2022-08-02T05:42:17.176Z,52.93
2022-08-02T05:46:19.217Z,45.88
2022-08-02T05:50:21.729Z,42.66
2022-08-02T05:55:13.242Z,40.50
2022-08-02T05:59:32.412Z,37.97
2022-08-02T06:03:43.773Z,36.01
2022-08-02T06:07:48.157Z,34.57
2022-08-02T06:12:02.573Z,34.24
2022-08-02T06:16:05.917Z,32.62
2022-08-02T06:20:16.468Z,31.43
2022-08-02T06:24:19.819Z,32.23
2022-08-02T06:28:22.883Z,32.55
2022-08-02T06:32:27.206Z,32.38
2022-08-02T06:36:42.435Z,31.33
2022-08-02T06:41:05.228Z,29.81
2022-08-02T06:45:07.892Z,29.31
2022-08-02T06:49:10.043Z,27.80
2022-08-02T06:53:12.456Z,27.14
2022-08-02T06:57:14.546Z,26.87
2022-08-02T07:01:19.185Z,25.55
2022-08-02T07:05:21.485Z,25.09
2022-08-02T07:09:23.675Z,24.02
2022-08-02T07:13:25.698Z,24.15
2022-08-02T07:17:28.598Z,28.23
2022-08-02T07:21:57.878Z,32.13
2022-08-02T07:26:03.228Z,34.83
2022-08-02T07:30:07.432Z,36.35
2022-08-02T07:34:09.483Z,38.48
2022-08-02T07:38:11.544Z,40.55
2022-08-02T07:42:13.876Z,42.82
2022-08-02T07:46:16.169Z,42.29
2022-08-02T07:50:20.320Z,42.83
2022-08-02T07:54:22.615Z,43.13
2022-08-02T07:58:24.690Z,43.08
2022-08-02T08:02:26.735Z,43.20
2022-08-02T08:06:29.366Z,43.47
2022-08-02T08:10:32.224Z,43.58
2022-08-02T08:14:34.481Z,42.00
2022-08-02T08:18:36.663Z,41.09
2022-08-02T08:22:38.635Z,41.37
2022-08-02T08:26:41.036Z,41.71
2022-08-02T08:30:43.060Z,41.37
2022-08-02T08:34:48.366Z,41.65
2022-08-02T08:38:50.478Z,43.09
2022-08-02T08:42:52.952Z,42.51
2022-08-02T08:46:56.558Z,41.30
2022-08-02T08:51:10.461Z,41.48
2022-08-02T08:55:14.000Z,41.65
2022-08-02T08:59:16.054Z,41.44
2022-08-02T09:03:18.335Z,40.20
2022-08-02T09:07:20.383Z,41.11
2022-08-02T09:11:26.014Z,40.24
2022-08-02T09:15:28.272Z,39.58
2022-08-02T09:19:30.294Z,39.45
2022-08-02T09:23:38.867Z,39.42
2022-08-02T09:27:40.936Z,39.31
2022-08-02T09:31:49.441Z,39.96
2022-08-02T09:36:06.634Z,40.05
2022-08-02T09:40:12.006Z,40.07
2022-08-02T09:44:16.488Z,40.16
2022-08-02T09:48:18.650Z,39.74
2022-08-02T09:52:43.304Z,39.53
2022-08-02T09:56:50.896Z,39.13
2022-08-02T10:00:54.800Z,38.74
2022-08-02T10:04:56.888Z,39.01
2022-08-02T10:09:00.039Z,38.92
2022-08-02T10:13:03.017Z,38.57
2022-08-02T10:17:06.660Z,38.48
2022-08-02T10:21:23.926Z,38.54
2022-08-02T10:25:27.243Z,38.25
2022-08-02T10:29:54.051Z,38.98
2022-08-02T10:34:00.028Z,38.70
2022-08-02T10:38:07.923Z,38.64
2022-08-02T10:42:11.288Z,38.33
2022-08-02T10:46:32.909Z,38.61
2022-08-02T10:50:47.156Z,37.75
2022-08-02T10:55:03.252Z,38.10
2022-08-02T10:59:47.127Z,36.37
2022-08-02T11:03:49.595Z,34.70
2022-08-02T11:07:51.740Z,35.99
2022-08-02T11:12:05.796Z,35.72
2022-08-02T11:16:11.561Z,35.38
2022-08-02T11:20:16.555Z,34.12
2022-08-02T11:24:39.030Z,34.44
2022-08-02T11:28:41.170Z,34.47
2022-08-02T11:32:43.357Z,35.28
2022-08-02T11:36:49.511Z,35.28
2022-08-02T11:40:57.631Z,34.38
2022-08-02T11:44:59.976Z,33.79
2022-08-02T11:49:15.869Z,34.52
2022-08-02T11:53:18.018Z,33.59
2022-08-02T11:57:21.844Z,33.88
2022-08-02T12:01:23.925Z,34.09
2022-08-02T12:05:51.318Z,33.45
2022-08-02T12:09:48.938Z,33.34
2022-08-02T12:13:56.598Z,33.66
2022-08-02T12:18:18.122Z,32.10
2022-08-02T12:22:27.457Z,32.44
2022-08-02T12:26:30.487Z,34.35
2022-08-02T12:30:49.775Z,33.20
2022-08-02T12:35:10.260Z,34.12
2022-08-02T12:39:14.289Z,33.57
2022-08-02T12:43:19.293Z,34.11
2022-08-02T12:47:21.977Z,33.03
2022-08-02T12:51:57.705Z,33.97
2022-08-02T12:56:03.328Z,34.20
2022-08-02T13:00:06.571Z,34.53
2022-08-02T13:04:13.556Z,33.36
2022-08-02T13:08:16.609Z,32.58
2022-08-02T13:12:18.736Z,32.69
2022-08-02T13:16:31.256Z,34.09
2022-08-02T13:20:33.584Z,33.27
2022-08-02T13:24:39.674Z,33.11
2022-08-02T13:28:57.672Z,34.02
2022-08-02T13:33:01.267Z,33.24
2022-08-02T13:37:04.363Z,34.00
2022-08-02T13:41:09.301Z,33.04
2022-08-02T13:45:12.837Z,32.86
2022-08-02T13:49:19.980Z,33.11
2022-08-02T13:53:24.663Z,33.21
2022-08-02T13:57:26.701Z,33.00
2022-08-02T14:01:28.861Z,32.71
2022-08-02T14:05:47.209Z,33.50
2022-08-02T14:09:50.720Z,31.78
2022-08-02T14:13:52.734Z,32.51
2022-08-02T14:17:54.749Z,32.66
2022-08-02T14:22:10.993Z,31.90
2022-08-02T14:26:27.194Z,31.74
2022-08-02T14:30:30.250Z,32.85
2022-08-02T14:34:32.353Z,32.05
2022-08-02T14:38:36.353Z,32.72
2022-08-02T14:42:38.378Z,31.96
2022-08-02T14:46:41.506Z,32.33
2022-08-02T14:50:43.614Z,32.37
2022-08-02T14:54:46.701Z,30.91
2022-08-02T14:58:49.083Z,32.56
2022-08-02T15:02:51.100Z,30.66
2022-08-02T15:06:53.729Z,31.00
2022-08-02T15:10:55.762Z,30.79
2022-08-02T15:14:58.830Z,31.05
2022-08-02T15:19:06.422Z,30.89
2022-08-02T15:23:08.685Z,31.15
2022-08-02T15:27:13.970Z,30.97
2022-08-02T15:31:32.778Z,31.09
2022-08-02T15:35:35.166Z,31.61
2022-08-02T15:39:37.310Z,30.72
2022-08-02T15:43:59.901Z,31.55
2022-08-02T15:48:01.406Z,31.30
2022-08-02T15:52:05.490Z,31.84
2022-08-02T15:56:12.796Z,32.16
2022-08-02T16:00:18.936Z,30.36
2022-08-02T16:04:21.307Z,31.32
2022-08-02T16:08:23.342Z,31.59
2022-08-02T16:12:32.286Z,31.70
2022-08-02T16:16:36.793Z,32.39
2022-08-02T16:20:38.928Z,32.58
2022-08-02T16:24:41.085Z,32.18
2022-08-02T16:28:43.279Z,32.68
2022-08-02T16:32:45.337Z,34.19
2022-08-02T16:36:47.443Z,32.66
2022-08-02T16:40:49.474Z,32.73
2022-08-02T16:44:53.472Z,32.87
2022-08-02T16:48:55.955Z,33.23
2022-08-02T16:52:58.887Z,33.64
2022-08-02T16:57:03.181Z,33.08
2022-08-02T17:01:05.585Z,32.81
2022-08-02T17:05:13.519Z,33.27
2022-08-02T17:10:04.297Z,34.81
2022-08-02T17:13:38.307Z,33.91
2022-08-02T17:17:42.154Z,33.93
2022-08-02T17:21:45.464Z,34.92
2022-08-02T17:25:52.327Z,34.31
2022-08-02T17:29:55.290Z,34.54
2022-08-02T17:33:58.433Z,34.77
2022-08-02T17:38:00.692Z,35.64
2022-08-02T17:42:04.647Z,35.45
2022-08-02T17:46:06.843Z,35.00
2022-08-02T17:54:32.230Z,35.65
2022-08-02T17:58:34.339Z,37.23
2022-08-02T18:02:36.671Z,36.96
2022-08-02T18:06:39.719Z,36.22
2022-08-02T18:10:42.057Z,36.92
2022-08-02T18:14:49.152Z,36.46
2022-08-02T18:18:51.511Z,36.49
2022-08-02T18:22:58.546Z,36.96
2022-08-02T18:27:00.998Z,37.48
2022-08-02T18:31:06.540Z,37.69
2022-08-02T18:35:09.349Z,37.95
2022-08-02T18:39:11.360Z,38.42
2022-08-02T18:43:14.295Z,38.91
2022-08-02T18:47:16.600Z,39.66
2022-08-02T18:51:19.372Z,40.03
2022-08-02T18:56:00.033Z,40.68
2022-08-02T18:59:43.543Z,41.14
2022-08-02T19:03:53.557Z,41.61
2022-08-02T19:07:55.570Z,41.90
2022-08-02T19:11:57.612Z,42.52
2022-08-02T19:15:59.708Z,43.14
2022-08-02T19:20:02.470Z,43.22
2022-08-02T19:24:04.733Z,43.43
2022-08-02T19:28:06.961Z,43.73
2022-08-02T19:32:42.984Z,44.24
2022-08-02T19:36:32.573Z,44.84
2022-08-02T19:40:38.503Z,45.14
2022-08-02T19:44:44.831Z,45.96
2022-08-02T19:48:47.477Z,46.44
2022-08-02T19:52:49.608Z,47.21
2022-08-02T19:56:54.971Z,47.22
2022-08-02T20:00:59.011Z,47.23
2022-08-02T20:05:08.029Z,47.74
2022-08-02T20:09:21.360Z,48.21
2022-08-02T20:13:24.650Z,48.66
2022-08-02T20:17:31.473Z,48.90
2022-08-02T20:21:35.942Z,49.24
2022-08-02T20:25:39.070Z,49.73
2022-08-02T20:29:49.852Z,50.10
2022-08-02T20:33:55.967Z,50.50
2022-08-02T20:38:01.627Z,50.73
2022-08-02T20:42:22.557Z,50.94
2022-08-02T20:46:26.331Z,51.43
2022-08-02T20:50:49.340Z,52.04
2022-08-02T20:54:52.839Z,52.49
2022-08-02T20:58:55.745Z,52.87
2022-08-02T21:03:07.374Z,53.58
2022-08-02T21:07:11.574Z,54.18
2022-08-02T21:11:15.190Z,54.80
2022-08-02T21:15:17.356Z,55.22
2022-08-02T21:19:19.369Z,56.08
2022-08-02T21:23:24.166Z,56.55
2022-08-02T21:27:53.136Z,56.63
2022-08-02T21:31:48.712Z,56.28
2022-08-02T21:35:53.208Z,57.21
2022-08-02T21:39:55.311Z,57.70
2022-08-02T21:44:01.785Z,58.09
2022-08-02T21:48:08.256Z,58.54
2022-08-02T21:52:10.451Z,59.22
2022-08-02T21:56:12.510Z,59.79
2022-08-02T22:00:14.943Z,60.68
2022-08-02T22:04:17.111Z,60.79
2022-08-02T22:08:19.246Z,60.90
2022-08-02T22:12:21.897Z,60.85
2022-08-02T22:16:28.274Z,61.61
2022-08-02T22:20:31.180Z,61.52
2022-08-02T22:24:33.241Z,61.24
2022-08-02T22:28:50.360Z,61.07
2022-08-02T22:33:15.206Z,61.18
2022-08-02T22:38:14.632Z,61.93
2022-08-02T22:42:01.267Z,62.07
2022-08-02T22:46:02.450Z,62.65
2022-08-02T22:50:04.987Z,63.17
2022-08-02T22:54:11.814Z,63.78
2022-08-02T22:58:14.196Z,63.88
2022-08-02T22:58:40.626Z,35.20
2022-08-02T23:02:21.607Z,64.84
2022-08-02T23:06:27.091Z,65.21
2022-08-02T23:10:29.149Z,66.04
2022-08-02T23:14:31.315Z,65.32
2022-08-02T23:18:52.040Z,65.09
2022-08-02T23:22:55.778Z,65.03
2022-08-02T23:26:57.917Z,64.90
2022-08-02T23:31:00.008Z,65.05
2022-08-02T23:35:02.085Z,64.96
2022-08-02T23:39:04.191Z,65.04
2022-08-02T23:43:15.047Z,65.58
2022-08-02T23:47:18.042Z,66.44
2022-08-02T23:51:21.985Z,66.49
2022-08-02T23:55:24.419Z,67.19
2022-08-02T23:59:26.449Z,67.79
